sensor_id;sensor_type;location;lat;lon;timestamp;pressure;altitude;pressure_sealevel;temperature;humidity
23016;BME280;11674;52.428;13.584;2022-08-03T00:01:39;101381.47;;;22.44;45.24
23016;BME280;11674;52.428;13.584;2022-08-03T00:04:06;101374.13;;;22.43;45.30
23016;BME280;11674;52.428;13.584;2022-08-03T00:06:38;101370.03;;;22.41;45.33
23016;BME280;11674;52.428;13.584;2022-08-03T00:09:11;101373.19;;;22.39;45.49
23016;BME280;11674;52.428;13.584;2022-08-03T00:11:43;101378.84;;;22.39;45.48
23016;BME280;11674;52.428;13.584;2022-08-03T00:14:15;101368.72;;;22.38;45.58
23016;BME280;11674;52.428;13.584;2022-08-03T00:16:47;101374.38;;;22.38;45.69
23016;BME280;11674;52.428;13.584;2022-08-03T00:19:19;101365.91;;;22.38;45.73
23016;BME280;11674;52.428;13.584;2022-08-03T00:21:51;101366.69;;;22.39;46.07
23016;BME280;11674;52.428;13.584;2022-08-03T00:24:16;101371.66;;;22.42;46.01
23016;BME280;11674;52.428;13.584;2022-08-03T00:26:48;101358.31;;;22.42;46.25
23016;BME280;11674;52.428;13.584;2022-08-03T00:29:13;101356.81;;;22.45;46.08
23016;BME280;11674;52.428;13.584;2022-08-03T00:31:45;101363.31;;;22.45;46.38
23016;BME280;11674;52.428;13.584;2022-08-03T00:34:10;101352.84;;;22.46;46.50
23016;BME280;11674;52.428;13.584;2022-08-03T00:36:42;101353.28;;;22.48;46.48
23016;BME280;11674;52.428;13.584;2022-08-03T00:39:14;101349.63;;;22.47;46.95
23016;BME280;11674;52.428;13.584;2022-08-03T00:41:39;101350.00;;;22.46;46.93
23016;BME280;11674;52.428;13.584;2022-08-03T00:44:11;101349.03;;;22.42;46.85
23016;BME280;11674;52.428;13.584;2022-08-03T00:46:43;101357.50;;;22.42;46.93
23016;BME280;11674;52.428;13.584;2022-08-03T00:49:08;101352.56;;;22.39;47.03
23016;BME280;11674;52.428;13.584;2022-08-03T00:51:40;101352.44;;;22.35;47.18
23016;BME280;11674;52.428;13.584;2022-08-03T00:54:05;101337.84;;;22.33;47.25
23016;BME280;11674;52.428;13.584;2022-08-03T00:56:37;101343.03;;;22.31;47.71
23016;BME280;11674;52.428;13.584;2022-08-03T00:59:09;101341.38;;;22.30;47.66
23016;BME280;11674;52.428;13.584;2022-08-03T01:01:41;101343.25;;;22.26;47.79
23016;BME280;11674;52.428;13.584;2022-08-03T01:04:13;101339.16;;;22.24;47.63
23016;BME280;11674;52.428;13.584;2022-08-03T01:06:45;101339.84;;;22.21;47.75
23016;BME280;11674;52.428;13.584;2022-08-03T01:12:23;101342.34;;;22.22;48.38
23016;BME280;11674;52.428;13.584;2022-08-03T01:20:44;101336.44;;;22.27;49.09
23016;BME280;11674;52.428;13.584;2022-08-03T01:26:09;101324.41;;;22.30;48.98
23016;BME280;11674;52.428;13.584;2022-08-03T01:29:08;101320.41;;;22.31;49.36
23016;BME280;11674;52.428;13.584;2022-08-03T01:31:49;101327.72;;;22.32;49.46
23016;BME280;11674;52.428;13.584;2022-08-03T01:34:25;101316.41;;;22.32;49.71
23016;BME280;11674;52.428;13.584;2022-08-03T01:36:58;101324.91;;;22.32;49.57
23016;BME280;11674;52.428;13.584;2022-08-03T01:39:35;101318.06;;;22.33;49.96
23016;BME280;11674;52.428;13.584;2022-08-03T01:42:10;101317.72;;;22.35;50.21
23016;BME280;11674;52.428;13.584;2022-08-03T01:44:43;101313.69;;;22.36;49.94
23016;BME280;11674;52.428;13.584;2022-08-03T01:47:19;101310.13;;;22.39;50.08
23016;BME280;11674;52.428;13.584;2022-08-03T01:49:51;101307.78;;;22.41;50.10
23016;BME280;11674;52.428;13.584;2022-08-03T01:52:25;101309.09;;;22.43;50.19
23016;BME280;11674;52.428;13.584;2022-08-03T01:54:58;101310.41;;;22.46;50.29
23016;BME280;11674;52.428;13.584;2022-08-03T01:57:30;101297.91;;;22.47;50.09
23016;BME280;11674;52.428;13.584;2022-08-03T02:00:03;101309.69;;;22.49;50.10
23016;BME280;11674;52.428;13.584;2022-08-03T02:02:38;101306.16;;;22.52;50.31
23016;BME280;11674;52.428;13.584;2022-08-03T02:05:11;101304.97;;;22.53;50.15
23016;BME280;11674;52.428;13.584;2022-08-03T02:07:45;101308.97;;;22.52;50.12
23016;BME280;11674;52.428;13.584;2022-08-03T02:10:31;101310.63;;;22.53;50.23
23016;BME280;11674;52.428;13.584;2022-08-03T02:13:06;101325.22;;;22.55;50.38
23016;BME280;11674;52.428;13.584;2022-08-03T02:15:40;101317.22;;;22.57;50.60
23016;BME280;11674;52.428;13.584;2022-08-03T02:18:12;101312.84;;;22.59;50.59
23016;BME280;11674;52.428;13.584;2022-08-03T02:20:45;101316.47;;;22.60;50.22
23016;BME280;11674;52.428;13.584;2022-08-03T02:23:17;101313.66;;;22.60;50.34
23016;BME280;11674;52.428;13.584;2022-08-03T02:25:52;101303.19;;;22.60;50.53
23016;BME280;11674;52.428;13.584;2022-08-03T02:28:35;101307.66;;;22.61;50.63
23016;BME280;11674;52.428;13.584;2022-08-03T02:31:20;101310.81;;;22.60;50.24
23016;BME280;11674;52.428;13.584;2022-08-03T02:33:57;101309.63;;;22.61;50.60
23016;BME280;11674;52.428;13.584;2022-08-03T02:36:34;101311.66;;;22.60;50.48
23016;BME280;11674;52.428;13.584;2022-08-03T02:39:10;101300.69;;;22.59;50.62
23016;BME280;11674;52.428;13.584;2022-08-03T02:41:51;101309.19;;;22.59;50.63
23016;BME280;11674;52.428;13.584;2022-08-03T02:44:25;101309.19;;;22.59;50.84
23016;BME280;11674;52.428;13.584;2022-08-03T02:47:02;101308.00;;;22.60;50.54
23016;BME280;11674;52.428;13.584;2022-08-03T02:49:35;101310.94;;;22.63;50.74
23016;BME280;11674;52.428;13.584;2022-08-03T02:52:09;101306.56;;;22.66;50.74
23016;BME280;11674;52.428;13.584;2022-08-03T02:54:43;101313.06;;;22.66;51.03
23016;BME280;11674;52.428;13.584;2022-08-03T02:57:16;101311.06;;;22.67;50.57
23016;BME280;11674;52.428;13.584;2022-08-03T02:59:50;101311.88;;;22.67;50.75
23016;BME280;11674;52.428;13.584;2022-08-03T03:02:23;101309.88;;;22.68;50.61
23016;BME280;11674;52.428;13.584;2022-08-03T03:04:55;101318.38;;;22.68;50.80
23016;BME280;11674;52.428;13.584;2022-08-03T03:07:29;101311.41;;;22.65;51.00
23016;BME280;11674;52.428;13.584;2022-08-03T03:10:03;101312.59;;;22.64;51.04
23016;BME280;11674;52.428;13.584;2022-08-03T03:12:36;101318.25;;;22.64;50.99
23016;BME280;11674;52.428;13.584;2022-08-03T03:15:09;101316.59;;;22.63;50.76
23016;BME280;11674;52.428;13.584;2022-08-03T03:17:42;101310.94;;;22.63;51.04
23016;BME280;11674;52.428;13.584;2022-08-03T03:20:15;101318.25;;;22.64;50.70
23016;BME280;11674;52.428;13.584;2022-08-03T03:22:49;101313.41;;;22.65;50.72
23016;BME280;11674;52.428;13.584;2022-08-03T03:25:21;101308.25;;;22.67;50.44
23016;BME280;11674;52.428;13.584;2022-08-03T03:27:53;101315.53;;;22.68;50.62
23016;BME280;11674;52.428;13.584;2022-08-03T03:30:25;101313.50;;;22.68;50.71
23016;BME280;11674;52.428;13.584;2022-08-03T03:32:57;101319.56;;;22.67;50.47
23016;BME280;11674;52.428;13.584;2022-08-03T03:35:30;101322.38;;;22.67;50.77
23016;BME280;11674;52.428;13.584;2022-08-03T03:38:02;101310.47;;;22.61;50.90
23016;BME280;11674;52.428;13.584;2022-08-03T03:40:35;101317.91;;;22.54;50.52
23016;BME280;11674;52.428;13.584;2022-08-03T03:43:08;101314.03;;;22.46;50.92
23016;BME280;11674;52.428;13.584;2022-08-03T03:45:40;101323.56;;;22.42;50.82
23016;BME280;11674;52.428;13.584;2022-08-03T03:48:12;101315.78;;;22.39;50.86
23016;BME280;11674;52.428;13.584;2022-08-03T03:50:44;101318.50;;;22.35;50.96
23016;BME280;11674;52.428;13.584;2022-08-03T03:53:16;101325.25;;;22.31;50.93
23016;BME280;11674;52.428;13.584;2022-08-03T03:55:48;101320.19;;;22.24;51.29
23016;BME280;11674;52.428;13.584;2022-08-03T03:58:22;101307.91;;;22.20;51.21
23016;BME280;11674;52.428;13.584;2022-08-03T04:00:54;101316.28;;;22.17;51.10
23016;BME280;11674;52.428;13.584;2022-08-03T04:03:26;101319.47;;;22.15;51.21
23016;BME280;11674;52.428;13.584;2022-08-03T04:05:58;101325.50;;;22.14;51.41
23016;BME280;11674;52.428;13.584;2022-08-03T04:08:30;101318.16;;;22.13;51.56
23016;BME280;11674;52.428;13.584;2022-08-03T04:13:39;101321.00;;;22.13;51.52
23016;BME280;11674;52.428;13.584;2022-08-03T04:16:15;101321.38;;;22.11;51.38
23016;BME280;11674;52.428;13.584;2022-08-03T04:18:51;101325.00;;;22.12;51.60
23016;BME280;11674;52.428;13.584;2022-08-03T04:21:24;101320.19;;;22.12;51.82
23016;BME280;11674;52.428;13.584;2022-08-03T04:23:59;101320.31;;;22.16;51.62
23016;BME280;11674;52.428;13.584;2022-08-03T04:26:35;101319.22;;;22.20;51.55
23016;BME280;11674;52.428;13.584;2022-08-03T04:29:09;101317.00;;;22.26;51.64
23016;BME280;11674;52.428;13.584;2022-08-03T04:31:44;101321.81;;;22.37;51.73
23016;BME280;11674;52.428;13.584;2022-08-03T04:34:17;101318.72;;;22.66;51.47
23016;BME280;11674;52.428;13.584;2022-08-03T04:36:52;101324.34;;;23.06;51.56
23016;BME280;11674;52.428;13.584;2022-08-03T04:39:30;101326.91;;;23.38;51.04
23016;BME280;11674;52.428;13.584;2022-08-03T04:42:03;101335.19;;;23.59;50.65
23016;BME280;11674;52.428;13.584;2022-08-03T04:44:39;101330.28;;;23.71;50.26
23016;BME280;11674;52.428;13.584;2022-08-03T04:47:12;101333.56;;;23.73;49.99
23016;BME280;11674;52.428;13.584;2022-08-03T04:49:44;101336.84;;;23.75;49.82
23016;BME280;11674;52.428;13.584;2022-08-03T04:52:16;101336.03;;;23.75;49.97
23016;BME280;11674;52.428;13.584;2022-08-03T04:54:48;101338.38;;;23.73;49.99
23016;BME280;11674;52.428;13.584;2022-08-03T04:57:20;101337.00;;;23.67;50.00
23016;BME280;11674;52.428;13.584;2022-08-03T04:59:53;101336.47;;;23.61;49.67
23016;BME280;11674;52.428;13.584;2022-08-03T05:02:25;101340.38;;;23.57;49.52
23016;BME280;11674;52.428;13.584;2022-08-03T05:04:57;101341.94;;;23.54;49.65
23016;BME280;11674;52.428;13.584;2022-08-03T05:07:29;101344.69;;;23.51;50.00
23016;BME280;11674;52.428;13.584;2022-08-03T05:10:01;101338.13;;;23.47;49.85
23016;BME280;11674;52.428;13.584;2022-08-03T05:12:33;101343.56;;;23.40;50.10
23016;BME280;11674;52.428;13.584;2022-08-03T05:15:06;101339.00;;;23.35;49.95
23016;BME280;11674;52.428;13.584;2022-08-03T05:17:38;101342.66;;;23.36;49.99
23016;BME280;11674;52.428;13.584;2022-08-03T05:20:10;101345.94;;;23.38;49.67
23016;BME280;11674;52.428;13.584;2022-08-03T05:22:42;101340.72;;;23.40;49.45
23016;BME280;11674;52.428;13.584;2022-08-03T05:25:14;101340.72;;;23.40;49.37
23016;BME280;11674;52.428;13.584;2022-08-03T05:27:46;101337.91;;;23.40;49.58
23016;BME280;11674;52.428;13.584;2022-08-03T05:30:18;101344.50;;;23.44;49.18
23016;BME280;11674;52.428;13.584;2022-08-03T05:32:50;101346.63;;;23.47;49.22
23016;BME280;11674;52.428;13.584;2022-08-03T05:35:22;101343.38;;;23.48;48.74
23016;BME280;11674;52.428;13.584;2022-08-03T05:37:54;101341.84;;;23.51;48.96
23016;BME280;11674;52.428;13.584;2022-08-03T05:40:26;101352.09;;;23.55;49.26
23016;BME280;11674;52.428;13.584;2022-08-03T05:42:59;101345.34;;;23.60;48.98
23016;BME280;11674;52.428;13.584;2022-08-03T05:45:31;101351.19;;;23.67;48.78
23016;BME280;11674;52.428;13.584;2022-08-03T05:48:06;101351.00;;;23.75;48.77
23016;BME280;11674;52.428;13.584;2022-08-03T05:50:38;101355.59;;;23.80;48.35
23016;BME280;11674;52.428;13.584;2022-08-03T05:53:10;101354.50;;;23.84;48.45
23016;BME280;11674;52.428;13.584;2022-08-03T05:55:42;101353.53;;;23.92;48.21
23016;BME280;11674;52.428;13.584;2022-08-03T05:58:14;101352.88;;;23.99;47.84
23016;BME280;11674;52.428;13.584;2022-08-03T06:00:46;101347.84;;;24.08;48.10
23016;BME280;11674;52.428;13.584;2022-08-03T06:03:18;101350.13;;;24.18;47.48
23016;BME280;11674;52.428;13.584;2022-08-03T06:05:50;101353.63;;;24.27;47.18
23016;BME280;11674;52.428;13.584;2022-08-03T06:08:22;101359.09;;;24.35;47.02
23016;BME280;11674;52.428;13.584;2022-08-03T06:10:54;101362.09;;;24.42;46.97
23016;BME280;11674;52.428;13.584;2022-08-03T06:13:26;101359.03;;;24.51;46.56
23016;BME280;11674;52.428;13.584;2022-08-03T06:15:58;101360.50;;;24.60;46.20
23016;BME280;11674;52.428;13.584;2022-08-03T06:18:30;101357.94;;;24.71;45.87
23016;BME280;11674;52.428;13.584;2022-08-03T06:21:03;101351.19;;;24.79;45.88
23016;BME280;11674;52.428;13.584;2022-08-03T06:23:35;101352.66;;;24.88;45.78
23016;BME280;11674;52.428;13.584;2022-08-03T06:26:07;101346.75;;;24.97;45.62
23016;BME280;11674;52.428;13.584;2022-08-03T06:28:43;101351.44;;;25.08;45.34
23016;BME280;11674;52.428;13.584;2022-08-03T06:31:15;101348.84;;;25.19;45.25
23016;BME280;11674;52.428;13.584;2022-08-03T06:33:47;101354.31;;;25.27;44.98
23016;BME280;11674;52.428;13.584;2022-08-03T06:36:19;101350.88;;;25.37;44.79
23016;BME280;11674;52.428;13.584;2022-08-03T06:38:51;101348.59;;;25.46;44.22
23016;BME280;11674;52.428;13.584;2022-08-03T06:41:24;101352.50;;;25.57;43.93
23016;BME280;11674;52.428;13.584;2022-08-03T06:43:55;101356.72;;;25.67;43.76
23016;BME280;11674;52.428;13.584;2022-08-03T06:46:27;101356.13;;;25.77;43.59
23016;BME280;11674;52.428;13.584;2022-08-03T06:48:52;101356.66;;;25.86;43.26
23016;BME280;11674;52.428;13.584;2022-08-03T06:51:24;101353.22;;;25.96;42.83
23016;BME280;11674;52.428;13.584;2022-08-03T06:53:56;101359.13;;;26.06;42.42
23016;BME280;11674;52.428;13.584;2022-08-03T06:56:21;101353.97;;;26.15;42.43
23016;BME280;11674;52.428;13.584;2022-08-03T06:58:53;101354.97;;;26.26;42.21
23016;BME280;11674;52.428;13.584;2022-08-03T07:01:25;101353.13;;;26.37;41.62
23016;BME280;11674;52.428;13.584;2022-08-03T07:03:57;101346.75;;;26.47;41.42
23016;BME280;11674;52.428;13.584;2022-08-03T07:06:29;101350.25;;;26.60;40.88
23016;BME280;11674;52.428;13.584;2022-08-03T07:09:01;101346.72;;;26.70;40.54
23016;BME280;11674;52.428;13.584;2022-08-03T07:11:33;101351.00;;;26.83;40.46
23016;BME280;11674;52.428;13.584;2022-08-03T07:14:05;101343.41;;;26.94;39.86
23016;BME280;11674;52.428;13.584;2022-08-03T07:16:37;101347.22;;;27.05;39.66
23016;BME280;11674;52.428;13.584;2022-08-03T07:19:09;101349.84;;;27.17;39.22
23016;BME280;11674;52.428;13.584;2022-08-03T07:21:41;101343.47;;;27.27;38.98
23016;BME280;11674;52.428;13.584;2022-08-03T07:24:13;101348.47;;;27.37;38.88
23016;BME280;11674;52.428;13.584;2022-08-03T07:26:45;101351.81;;;27.46;38.49
23016;BME280;11674;52.428;13.584;2022-08-03T07:29:17;101339.72;;;27.56;38.50
23016;BME280;11674;52.428;13.584;2022-08-03T07:31:49;101336.97;;;27.66;38.09
23016;BME280;11674;52.428;13.584;2022-08-03T07:34:21;101344.00;;;27.76;37.91
23016;BME280;11674;52.428;13.584;2022-08-03T07:36:53;101339.22;;;27.83;37.31
23016;BME280;11674;52.428;13.584;2022-08-03T07:39:25;101345.44;;;27.92;37.28
23016;BME280;11674;52.428;13.584;2022-08-03T07:41:57;101341.03;;;28.02;37.31
23016;BME280;11674;52.428;13.584;2022-08-03T07:44:29;101341.06;;;28.09;37.25
23016;BME280;11674;52.428;13.584;2022-08-03T07:47:01;101346.88;;;28.16;36.92
23016;BME280;11674;52.428;13.584;2022-08-03T07:49:38;101339.97;;;28.24;36.57
23016;BME280;11674;52.428;13.584;2022-08-03T07:52:17;101341.28;;;28.33;36.35
23016;BME280;11674;52.428;13.584;2022-08-03T07:54:49;101343.41;;;28.43;36.46
23016;BME280;11674;52.428;13.584;2022-08-03T07:57:21;101349.22;;;28.54;36.02
23016;BME280;11674;52.428;13.584;2022-08-03T07:59:53;101348.06;;;28.65;36.17
23016;BME280;11674;52.428;13.584;2022-08-03T08:02:25;101342.81;;;28.74;35.99
23016;BME280;11674;52.428;13.584;2022-08-03T08:04:57;101341.22;;;28.84;35.59
23016;BME280;11674;52.428;13.584;2022-08-03T08:07:29;101349.03;;;28.94;35.34
23016;BME280;11674;52.428;13.584;2022-08-03T08:10:01;101334.41;;;29.02;35.16
23016;BME280;11674;52.428;13.584;2022-08-03T08:12:33;101340.56;;;29.08;35.11
23016;BME280;11674;52.428;13.584;2022-08-03T08:15:06;101342.22;;;29.16;34.91
23016;BME280;11674;52.428;13.584;2022-08-03T08:17:49;101340.22;;;29.23;34.71
23016;BME280;11674;52.428;13.584;2022-08-03T08:20:27;101341.91;;;29.31;34.53
23016;BME280;11674;52.428;13.584;2022-08-03T08:23:02;101339.88;;;29.39;34.56
23016;BME280;11674;52.428;13.584;2022-08-03T08:25:35;101341.53;;;29.47;34.48
23016;BME280;11674;52.428;13.584;2022-08-03T08:28:07;101334.56;;;29.51;33.86
23016;BME280;11674;52.428;13.584;2022-08-03T08:30:39;101341.16;;;29.55;33.57
23016;BME280;11674;52.428;13.584;2022-08-03T08:33:12;101338.31;;;29.59;33.73
23016;BME280;11674;52.428;13.584;2022-08-03T08:35:44;101339.16;;;29.63;33.41
23016;BME280;11674;52.428;13.584;2022-08-03T08:38:16;101335.88;;;29.68;33.50
23016;BME280;11674;52.428;13.584;2022-08-03T08:40:49;101334.25;;;29.74;33.19
23016;BME280;11674;52.428;13.584;2022-08-03T08:43:21;101336.31;;;29.80;33.18
23016;BME280;11674;52.428;13.584;2022-08-03T08:45:54;101331.81;;;29.86;32.68
23016;BME280;11674;52.428;13.584;2022-08-03T08:48:28;101335.91;;;29.89;32.84
23016;BME280;11674;52.428;13.584;2022-08-03T08:51:00;101333.06;;;29.96;32.67
23016;BME280;11674;52.428;13.584;2022-08-03T08:53:36;101336.34;;;30.01;32.78
23016;BME280;11674;52.428;13.584;2022-08-03T08:56:12;101328.56;;;30.05;32.29
23016;BME280;11674;52.428;13.584;2022-08-03T08:58:50;101334.72;;;30.11;32.20
23016;BME280;11674;52.428;13.584;2022-08-03T09:01:22;101336.38;;;30.19;31.92
23016;BME280;11674;52.428;13.584;2022-08-03T09:03:54;101338.41;;;30.25;32.01
23016;BME280;11674;52.428;13.584;2022-08-03T09:06:26;101336.75;;;30.28;31.49
23016;BME280;11674;52.428;13.584;2022-08-03T09:08:58;101332.25;;;30.34;31.29
23016;BME280;11674;52.428;13.584;2022-08-03T09:11:30;101323.66;;;30.44;31.17
23016;BME280;11674;52.428;13.584;2022-08-03T09:14:03;101325.28;;;30.56;31.26
23016;BME280;11674;52.428;13.584;2022-08-03T09:16:34;101324.03;;;30.64;30.91
23016;BME280;11674;52.428;13.584;2022-08-03T09:19:13;101324.47;;;30.69;30.70
23016;BME280;11674;52.428;13.584;2022-08-03T09:21:47;101321.16;;;30.71;30.67
23016;BME280;11674;52.428;13.584;2022-08-03T09:24:52;101314.63;;;30.74;30.59
23016;BME280;11674;52.428;13.584;2022-08-03T09:27:24;101325.25;;;30.84;30.58
23016;BME280;11674;52.428;13.584;2022-08-03T09:29:56;101312.94;;;30.94;30.38
23016;BME280;11674;52.428;13.584;2022-08-03T09:32:28;101314.94;;;30.97;30.08
23016;BME280;11674;52.428;13.584;2022-08-03T09:35:03;101307.16;;;30.97;29.83
23016;BME280;11674;52.428;13.584;2022-08-03T09:37:35;101309.22;;;30.97;29.66
23016;BME280;11674;52.428;13.584;2022-08-03T09:40:07;101301.41;;;31.01;29.53
23016;BME280;11674;52.428;13.584;2022-08-03T09:42:54;101306.69;;;31.13;29.71
23016;BME280;11674;52.428;13.584;2022-08-03T09:45:27;101299.28;;;31.19;29.83
23016;BME280;11674;52.428;13.584;2022-08-03T09:48:22;101298.06;;;31.23;29.72
23016;BME280;11674;52.428;13.584;2022-08-03T09:50:56;101293.94;;;31.28;29.51
23016;BME280;11674;52.428;13.584;2022-08-03T09:53:28;101300.03;;;31.37;29.64
23016;BME280;11674;52.428;13.584;2022-08-03T09:56:01;101302.03;;;31.47;28.99
23016;BME280;11674;52.428;13.584;2022-08-03T09:58:44;101295.06;;;31.48;29.00
23016;BME280;11674;52.428;13.584;2022-08-03T10:01:16;101299.09;;;31.57;28.88
23016;BME280;11674;52.428;13.584;2022-08-03T10:03:57;101292.44;;;31.67;28.78
23016;BME280;11674;52.428;13.584;2022-08-03T10:06:28;101287.06;;;31.80;28.61
23016;BME280;11674;52.428;13.584;2022-08-03T10:09:18;101293.91;;;31.93;28.53
23016;BME280;11674;52.428;13.584;2022-08-03T10:11:50;101286.44;;;32.02;28.59
23016;BME280;11674;52.428;13.584;2022-08-03T10:14:22;101278.63;;;32.06;28.26
23016;BME280;11674;52.428;13.584;2022-08-03T10:16:55;101283.06;;;32.14;27.98
23016;BME280;11674;52.428;13.584;2022-08-03T10:19:27;101282.63;;;32.19;27.89
23016;BME280;11674;52.428;13.584;2022-08-03T10:22:03;101282.16;;;32.21;27.87
23016;BME280;11674;52.428;13.584;2022-08-03T10:24:39;101276.00;;;32.26;27.72
23016;BME280;11674;52.428;13.584;2022-08-03T10:27:15;101272.34;;;32.22;27.87
23016;BME280;11674;52.428;13.584;2022-08-03T10:29:54;101266.94;;;32.27;27.38
23016;BME280;11674;52.428;13.584;2022-08-03T10:32:30;101270.13;;;32.40;27.59
23016;BME280;11674;52.428;13.584;2022-08-03T10:35:10;101263.84;;;32.48;27.35
23016;BME280;11674;52.428;13.584;2022-08-03T10:37:57;101263.75;;;32.59;27.32
23016;BME280;11674;52.428;13.584;2022-08-03T10:40:30;101268.53;;;32.72;27.25
23016;BME280;11674;52.428;13.584;2022-08-03T10:43:09;101264.75;;;32.79;27.31
23016;BME280;11674;52.428;13.584;2022-08-03T10:45:43;101256.00;;;32.89;27.06
23016;BME280;11674;52.428;13.584;2022-08-03T10:48:17;101256.28;;;32.98;26.99
23016;BME280;11674;52.428;13.584;2022-08-03T10:50:49;101257.09;;;32.99;26.32
23016;BME280;11674;52.428;13.584;2022-08-03T10:53:39;101253.13;;;32.89;26.31
23016;BME280;11674;52.428;13.584;2022-08-03T10:59:05;101257.44;;;32.71;26.16
23016;BME280;11674;52.428;13.584;2022-08-03T11:01:51;101246.69;;;32.78;26.40
23016;BME280;11674;52.428;13.584;2022-08-03T11:04:23;101241.63;;;32.89;26.02
23016;BME280;11674;52.428;13.584;2022-08-03T11:09:51;101249.91;;;33.14;25.93
23016;BME280;11674;52.428;13.584;2022-08-03T11:14:57;101242.91;;;33.45;25.67
23016;BME280;11674;52.428;13.584;2022-08-03T11:17:30;101238.66;;;33.53;25.43
23016;BME280;11674;52.428;13.584;2022-08-03T11:20:02;101236.53;;;33.57;25.41
23016;BME280;11674;52.428;13.584;2022-08-03T11:22:52;101232.53;;;33.51;25.21
23016;BME280;11674;52.428;13.584;2022-08-03T11:25:24;101228.88;;;33.47;25.39
23016;BME280;11674;52.428;13.584;2022-08-03T11:28:25;101227.56;;;33.51;25.28
23016;BME280;11674;52.428;13.584;2022-08-03T11:39:50;101222.13;;;34.29;25.25
23016;BME280;11674;52.428;13.584;2022-08-03T11:44:55;101224.44;;;34.38;25.02
23016;BME280;11674;52.428;13.584;2022-08-03T11:47:28;101217.41;;;34.39;24.62
23016;BME280;11674;52.428;13.584;2022-08-03T11:50:00;101214.84;;;34.44;24.96
23016;BME280;11674;52.428;13.584;2022-08-03T11:52:26;101222.38;;;34.58;24.67
23016;BME280;11674;52.428;13.584;2022-08-03T11:55:09;101217.72;;;34.64;24.52
23016;BME280;11674;52.428;13.584;2022-08-03T11:57:41;101216.84;;;34.67;24.57
23016;BME280;11674;52.428;13.584;2022-08-03T12:00:23;101223.81;;;34.69;24.50
23016;BME280;11674;52.428;13.584;2022-08-03T12:05:35;101213.69;;;34.81;24.18
23016;BME280;11674;52.428;13.584;2022-08-03T12:08:00;101207.91;;;34.81;24.08
23016;BME280;11674;52.428;13.584;2022-08-03T12:10:33;101208.34;;;34.99;24.46
23016;BME280;11674;52.428;13.584;2022-08-03T12:13:06;101213.56;;;35.23;23.97
23016;BME280;11674;52.428;13.584;2022-08-03T12:15:38;101201.41;;;35.32;24.07
23016;BME280;11674;52.428;13.584;2022-08-03T12:18:16;101207.44;;;35.37;23.62
23016;BME280;11674;52.428;13.584;2022-08-03T12:20:50;101200.16;;;35.49;23.74
23016;BME280;11674;52.428;13.584;2022-08-03T12:23:26;101199.44;;;36.09;23.22
23016;BME280;11674;52.428;13.584;2022-08-03T12:26:06;101189.63;;;36.92;22.91
23016;BME280;11674;52.428;13.584;2022-08-03T12:28:46;101196.66;;;37.69;22.57
23016;BME280;11674;52.428;13.584;2022-08-03T12:31:18;101194.19;;;38.27;22.62
23016;BME280;11674;52.428;13.584;2022-08-03T12:34:03;101183.38;;;38.83;21.74
23016;BME280;11674;52.428;13.584;2022-08-03T12:36:35;101179.84;;;39.31;21.93
23016;BME280;11674;52.428;13.584;2022-08-03T12:39:08;101175.41;;;39.66;22.00
23016;BME280;11674;52.428;13.584;2022-08-03T12:41:39;101179.88;;;39.88;21.80
23016;BME280;11674;52.428;13.584;2022-08-03T12:44:11;101177.03;;;40.15;21.51
23016;BME280;11674;52.428;13.584;2022-08-03T12:46:43;101168.59;;;40.17;20.93
23016;BME280;11674;52.428;13.584;2022-08-03T12:49:15;101166.81;;;40.11;20.77
23016;BME280;11674;52.428;13.584;2022-08-03T12:54:25;101160.00;;;39.96;20.58
23016;BME280;11674;52.428;13.584;2022-08-03T12:57:10;101164.34;;;39.91;20.84
23016;BME280;11674;52.428;13.584;2022-08-03T12:59:43;101154.03;;;40.08;20.93
23016;BME280;11674;52.428;13.584;2022-08-03T13:02:19;101163.63;;;40.27;20.38
23016;BME280;11674;52.428;13.584;2022-08-03T13:04:52;101159.53;;;39.97;20.21
23016;BME280;11674;52.428;13.584;2022-08-03T13:07:24;101158.38;;;39.86;20.08
23016;BME280;11674;52.428;13.584;2022-08-03T13:09:56;101161.31;;;39.95;20.10
23016;BME280;11674;52.428;13.584;2022-08-03T13:12:28;101152.56;;;40.04;20.01
23016;BME280;11674;52.428;13.584;2022-08-03T13:15:00;101153.22;;;40.08;20.09
23016;BME280;11674;52.428;13.584;2022-08-03T13:17:32;101146.16;;;40.18;20.04
23016;BME280;11674;52.428;13.584;2022-08-03T13:20:05;101144.16;;;39.79;19.75
23016;BME280;11674;52.428;13.584;2022-08-03T13:22:36;101152.06;;;39.39;20.11
23016;BME280;11674;52.428;13.584;2022-08-03T13:25:08;101148.97;;;39.03;19.84
23016;BME280;11674;52.428;13.584;2022-08-03T13:27:40;101154.75;;;38.72;20.10
23016;BME280;11674;52.428;13.584;2022-08-03T13:30:13;101156.50;;;38.70;20.66
23016;BME280;11674;52.428;13.584;2022-08-03T13:32:45;101156.91;;;38.81;20.23
23016;BME280;11674;52.428;13.584;2022-08-03T13:35:17;101157.06;;;38.99;20.48
23016;BME280;11674;52.428;13.584;2022-08-03T13:37:49;101148.22;;;39.11;20.45
23016;BME280;11674;52.428;13.584;2022-08-03T13:40:21;101150.78;;;39.09;19.99
23016;BME280;11674;52.428;13.584;2022-08-03T13:42:53;101156.75;;;38.84;20.05
23016;BME280;11674;52.428;13.584;2022-08-03T13:45:25;101142.59;;;38.65;20.16
23016;BME280;11674;52.428;13.584;2022-08-03T13:47:57;101142.66;;;38.74;20.48
23016;BME280;11674;52.428;13.584;2022-08-03T13:50:29;101132.16;;;38.89;20.03
23016;BME280;11674;52.428;13.584;2022-08-03T13:53:01;101134.28;;;38.97;20.19